createdAt,value
2024-02-07T00:00:17.271Z,54.87
2024-02-07T00:04:25.231Z,55.09
2024-02-07T00:08:11.228Z,55.56
2024-02-07T00:12:00.593Z,55.70
2024-02-07T00:15:51.091Z,56.29
2024-02-07T00:19:39.034Z,56.60
2024-02-07T00:23:07.569Z,56.63
2024-02-07T00:26:50.141Z,56.42
2024-02-07T00:30:40.381Z,56.39
2024-02-07T00:34:28.778Z,57.10
2024-02-07T00:38:16.535Z,56.74
2024-02-07T00:41:59.832Z,56.55
2024-02-07T00:45:41.528Z,56.61
2024-02-07T00:49:29.404Z,56.50
2024-02-07T00:53:17.268Z,56.74
2024-02-07T00:57:05.136Z,56.76
2024-02-07T01:00:43.007Z,56.64
2024-02-07T01:04:30.887Z,56.38
2024-02-07T01:08:11.152Z,56.40
2024-02-07T01:11:51.478Z,56.26
2024-02-07T01:15:39.258Z,56.53
2024-02-07T01:19:27.309Z,56.73
2024-02-07T01:23:15.079Z,57.37
2024-02-07T01:27:02.696Z,57.17
2024-02-07T01:30:50.612Z,57.92
2024-02-07T01:34:38.449Z,57.51
2024-02-07T01:38:26.476Z,57.91
2024-02-07T01:42:20.196Z,57.85
2024-02-07T01:46:10.856Z,58.34
2024-02-07T01:49:58.625Z,58.74
2024-02-07T01:53:46.317Z,58.61
2024-02-07T01:57:27.134Z,58.73
2024-02-07T02:01:14.977Z,58.79
2024-02-07T02:05:03.157Z,58.95
2024-02-07T02:08:50.983Z,59.16
2024-02-07T02:12:38.680Z,59.70
2024-02-07T02:16:26.816Z,60.48
2024-02-07T02:19:49.457Z,59.95
2024-02-07T02:23:53.957Z,59.94
2024-02-07T02:27:44.320Z,60.01
2024-02-07T02:31:27.213Z,59.41
2024-02-07T02:35:14.879Z,59.10
2024-02-07T02:39:01.325Z,59.68
2024-02-07T02:42:30.264Z,60.11
2024-02-07T02:46:09.192Z,60.08
2024-02-07T02:49:56.905Z,59.46
2024-02-07T02:53:44.592Z,59.49
2024-02-07T02:57:10.891Z,59.93
2024-02-07T03:00:58.715Z,59.80
2024-02-07T03:04:47.490Z,59.69
2024-02-07T03:08:38.310Z,59.53
2024-02-07T03:12:25.926Z,59.90
2024-02-07T03:16:06.113Z,60.05
2024-02-07T03:19:52.307Z,59.84
2024-02-07T03:23:40.449Z,60.65
2024-02-07T03:27:28.176Z,60.09
2024-02-07T03:31:15.898Z,60.08
2024-02-07T03:35:03.662Z,60.36
2024-02-07T03:38:51.536Z,60.47
2024-02-07T03:42:39.120Z,60.24
2024-02-07T03:46:26.729Z,60.06
2024-02-07T03:50:14.406Z,60.11
2024-02-07T03:54:02.151Z,59.90
2024-02-07T03:57:49.669Z,60.15
2024-02-07T04:01:37.466Z,59.96
2024-02-07T04:05:18.413Z,59.70
2024-02-07T04:08:26.581Z,60.27
2024-02-07T04:11:54.106Z,60.34
2024-02-07T04:15:40.365Z,60.01
2024-02-07T04:19:26.612Z,60.13
2024-02-07T04:22:55.409Z,59.91
2024-02-07T04:26:22.981Z,59.85
2024-02-07T04:29:47.080Z,59.93
2024-02-07T04:33:32.926Z,59.94
2024-02-07T04:37:19.068Z,60.10
2024-02-07T04:41:05.428Z,60.35
2024-02-07T04:44:51.665Z,60.37
2024-02-07T04:48:37.718Z,60.22
2024-02-07T04:52:03.109Z,60.07
2024-02-07T04:55:49.341Z,60.12
2024-02-07T04:59:35.083Z,60.08
2024-02-07T05:03:01.315Z,60.38
2024-02-07T05:06:27.068Z,60.75
2024-02-07T05:10:13.325Z,60.75
2024-02-07T05:13:59.658Z,60.68
2024-02-07T05:17:26.628Z,61.29
2024-02-07T05:20:19.029Z,60.91
2024-02-07T05:24:08.221Z,60.61
2024-02-07T05:27:34.274Z,60.49
2024-02-07T05:31:21.909Z,60.46
2024-02-07T05:35:09.716Z,60.07
2024-02-07T05:38:58.557Z,59.96
2024-02-07T05:42:46.401Z,59.83
2024-02-07T05:46:26.904Z,59.66
2024-02-07T05:49:48.098Z,59.83
2024-02-07T05:54:04.757Z,59.80
2024-02-07T05:57:26.358Z,59.55
2024-02-07T06:05:37.924Z,59.13
2024-02-07T06:09:10.549Z,58.76
2024-02-07T06:12:37.642Z,58.78
2024-02-07T06:16:03.838Z,58.93
2024-02-07T06:19:36.573Z,58.89
2024-02-07T06:22:56.537Z,58.88
2024-02-07T06:27:31.603Z,58.90
2024-02-07T06:30:46.134Z,58.82
2024-02-07T06:34:17.935Z,58.55
2024-02-07T06:37:46.852Z,58.46
2024-02-07T06:41:15.343Z,58.08
2024-02-07T06:44:03.139Z,57.87
2024-02-07T06:47:07.741Z,57.49
2024-02-07T06:50:27.385Z,57.43
2024-02-07T06:54:06.922Z,57.05
2024-02-07T06:57:23.268Z,57.10
2024-02-07T07:01:20.782Z,57.16
2024-02-07T07:04:54.810Z,56.87
2024-02-07T07:09:30.010Z,56.80
2024-02-07T07:13:39.984Z,56.38
2024-02-07T07:27:07.932Z,55.71
2024-02-07T07:30:46.425Z,55.45
2024-02-07T07:35:54.578Z,55.71
2024-02-07T07:40:25.289Z,55.72
2024-02-07T07:49:10.426Z,55.37
2024-02-07T07:52:32.526Z,54.23
2024-02-07T08:18:55.499Z,38.64
2024-02-07T08:23:03.328Z,35.84
2024-02-07T08:26:26.305Z,34.81
2024-02-07T08:29:46.317Z,34.66
2024-02-07T08:32:34.559Z,33.89
2024-02-07T08:35:38.357Z,32.83
2024-02-07T08:38:28.297Z,33.51
2024-02-07T08:40:59.024Z,31.52
2024-02-07T08:43:54.133Z,32.08
2024-02-07T08:46:29.140Z,32.09
2024-02-07T08:49:46.668Z,32.47
2024-02-07T08:53:01.916Z,32.08
2024-02-07T08:56:24.001Z,31.33
2024-02-07T09:00:02.427Z,31.25
2024-02-07T09:03:42.988Z,31.41
2024-02-07T09:11:17.381Z,31.15
2024-02-07T09:14:26.900Z,31.02
2024-02-07T09:29:39.247Z,32.56
2024-02-07T09:32:52.609Z,32.99
2024-02-07T09:36:15.912Z,33.46
2024-02-07T09:39:18.375Z,33.46
2024-02-07T09:42:18.863Z,33.64
2024-02-07T09:45:20.480Z,33.82
2024-02-07T09:48:34.662Z,34.10
2024-02-07T09:51:45.528Z,34.09
2024-02-07T09:56:06.859Z,34.33
2024-02-07T10:00:09.882Z,34.22
2024-02-07T10:35:40.488Z,34.45
2024-02-07T10:39:23.266Z,34.75
2024-02-07T10:42:48.290Z,34.58
2024-02-07T10:46:02.361Z,34.75
2024-02-07T10:49:17.766Z,34.56
2024-02-07T10:52:56.238Z,34.67
2024-02-07T10:55:47.021Z,35.24
2024-02-07T10:58:36.524Z,35.58
2024-02-07T11:01:54.190Z,36.03
2024-02-07T11:05:40.367Z,35.29
2024-02-07T11:09:16.308Z,35.46
2024-02-07T11:13:15.717Z,35.80
2024-02-07T11:17:29.206Z,36.32
2024-02-07T11:29:10.432Z,36.77
2024-02-07T11:31:41.996Z,37.16
2024-02-07T11:34:52.882Z,36.92
2024-02-07T11:38:43.629Z,37.11
2024-02-07T11:42:24.897Z,37.24
2024-02-07T11:46:08.792Z,36.94
2024-02-07T11:49:52.859Z,36.83
2024-02-07T11:53:36.821Z,37.52
2024-02-07T11:57:22.063Z,37.16
2024-02-07T12:00:50.068Z,37.00
2024-02-07T12:04:29.537Z,37.51
2024-02-07T12:08:16.088Z,38.68
2024-02-07T12:12:14.350Z,39.22
2024-02-07T12:16:34.421Z,39.88
2024-02-07T12:33:03.072Z,42.19
2024-02-07T12:40:33.255Z,42.68
2024-02-07T12:43:25.506Z,42.51
2024-02-07T12:49:31.953Z,43.10
2024-02-07T12:50:55.601Z,43.29
2024-02-07T12:54:16.726Z,43.12
2024-02-07T12:57:43.759Z,43.16
2024-02-07T13:01:30.399Z,43.42
2024-02-07T13:05:01.954Z,43.51
2024-02-07T13:08:49.778Z,43.78
2024-02-07T13:12:58.157Z,44.12
2024-02-07T13:16:46.009Z,44.52
2024-02-07T13:20:33.923Z,43.81
2024-02-07T13:24:21.806Z,44.77
2024-02-07T13:28:09.585Z,45.33
2024-02-07T13:31:39.971Z,45.38
2024-02-07T13:35:27.725Z,45.74
2024-02-07T13:38:49.756Z,45.82
2024-02-07T13:42:37.550Z,46.03
2024-02-07T13:46:25.411Z,46.41
2024-02-07T13:50:02.298Z,46.75
2024-02-07T13:53:50.224Z,47.06
2024-02-07T13:57:30.649Z,47.43
2024-02-07T14:00:48.696Z,47.72
2024-02-07T14:04:08.180Z,48.37
2024-02-07T14:07:39.839Z,48.41
2024-02-07T14:11:45.716Z,48.94
2024-02-07T14:15:25.744Z,49.18
2024-02-07T14:19:19.557Z,49.54
2024-02-07T14:23:07.829Z,50.12
2024-02-07T14:26:55.730Z,50.46
2024-02-07T14:30:24.953Z,50.40
2024-02-07T14:34:16.522Z,50.66
2024-02-07T14:38:11.398Z,50.59
2024-02-07T14:41:51.938Z,50.86
2024-02-07T14:45:40.048Z,50.41
2024-02-07T14:49:05.833Z,50.59
2024-02-07T14:52:37.970Z,50.62
2024-02-07T14:56:26.660Z,50.63
2024-02-07T15:00:14.419Z,51.02
2024-02-07T15:04:02.233Z,50.71
2024-02-07T15:07:50.002Z,50.55
2024-02-07T15:11:37.773Z,50.60
2024-02-07T15:15:25.489Z,50.32
2024-02-07T15:19:13.191Z,50.77
2024-02-07T15:23:00.835Z,50.42
2024-02-07T15:26:48.448Z,50.61
2024-02-07T15:30:36.188Z,50.63
2024-02-07T15:34:13.680Z,51.17
2024-02-07T15:38:01.360Z,51.12
2024-02-07T15:41:49.420Z,50.94
2024-02-07T15:45:38.475Z,51.76
2024-02-07T15:49:27.419Z,51.53
2024-02-07T15:53:14.992Z,51.93
2024-02-07T15:57:02.575Z,51.82
2024-02-07T16:00:40.617Z,52.51
2024-02-07T16:04:28.454Z,52.54
2024-02-07T16:08:16.234Z,52.48
2024-02-07T16:12:03.912Z,53.08
2024-02-07T16:15:51.520Z,53.30
2024-02-07T16:19:39.388Z,53.99
2024-02-07T16:23:27.040Z,54.13
2024-02-07T16:27:14.618Z,54.38
2024-02-07T16:30:45.323Z,54.92
2024-02-07T16:33:55.904Z,54.85
2024-02-07T16:37:23.692Z,54.71
2024-02-07T16:41:10.174Z,55.28
2024-02-07T16:44:58.155Z,55.95
2024-02-07T16:48:46.221Z,55.95
2024-02-07T16:52:34.067Z,55.56
2024-02-07T16:56:21.721Z,56.59
2024-02-07T17:00:09.514Z,57.34
2024-02-07T17:03:57.281Z,57.63
2024-02-07T17:07:45.202Z,57.91
2024-02-07T17:11:32.838Z,58.03
2024-02-07T17:15:20.929Z,58.77
2024-02-07T17:19:08.957Z,58.64
2024-02-07T17:22:56.720Z,59.32
2024-02-07T17:26:44.511Z,59.28
2024-02-07T17:30:36.614Z,60.71
2024-02-07T17:34:25.574Z,60.07
2024-02-07T17:38:13.286Z,60.87
2024-02-07T17:42:01.108Z,60.71
2024-02-07T17:45:49.104Z,60.62
2024-02-07T17:49:36.976Z,60.56
2024-02-07T17:53:25.780Z,59.81
2024-02-07T17:57:13.516Z,60.10
2024-02-07T18:01:01.409Z,59.74
2024-02-07T18:04:49.236Z,59.68
2024-02-07T18:08:37.021Z,60.01
2024-02-07T18:12:24.842Z,59.63
2024-02-07T18:16:12.541Z,59.41
2024-02-07T18:20:03.559Z,59.19
2024-02-07T18:23:52.500Z,59.32
2024-02-07T18:27:01.324Z,59.14
2024-02-07T18:30:28.865Z,58.70
2024-02-07T18:34:16.586Z,58.56
2024-02-07T18:38:04.494Z,58.69
2024-02-07T18:41:52.176Z,58.18
2024-02-07T18:45:39.975Z,58.47
2024-02-07T18:49:18.074Z,58.54
2024-02-07T18:53:05.968Z,58.35
2024-02-07T18:56:54.180Z,58.48
2024-02-07T19:00:42.627Z,58.38
2024-02-07T19:04:30.618Z,58.74
2024-02-07T19:08:18.533Z,58.66
2024-02-07T19:12:06.380Z,58.79
2024-02-07T19:15:53.994Z,58.70
2024-02-07T19:19:41.874Z,58.57
2024-02-07T19:23:29.850Z,59.07
2024-02-07T19:27:17.652Z,59.82
2024-02-07T19:31:05.445Z,60.23
2024-02-07T19:34:53.327Z,59.87
2024-02-07T19:38:41.000Z,59.25
2024-02-07T19:42:28.848Z,59.31
2024-02-07T19:46:16.365Z,59.85
2024-02-07T19:50:03.853Z,59.87
2024-02-07T19:53:51.683Z,60.15
2024-02-07T19:57:39.300Z,60.60
2024-02-07T20:00:53.393Z,60.90
2024-02-07T20:04:41.338Z,61.13
2024-02-07T20:08:22.039Z,60.86
2024-02-07T20:12:09.726Z,61.00
2024-02-07T20:15:57.422Z,60.85
2024-02-07T20:19:45.075Z,60.53
2024-02-07T20:23:32.742Z,60.38
2024-02-07T20:27:20.461Z,60.22
2024-02-07T20:31:08.254Z,60.45
2024-02-07T20:34:15.861Z,60.21
2024-02-07T20:38:03.686Z,59.97
2024-02-07T20:41:51.556Z,59.72
2024-02-07T20:45:39.163Z,59.88
2024-02-07T20:49:27.117Z,59.87
2024-02-07T20:53:14.856Z,59.89
2024-02-07T20:57:02.661Z,59.46
2024-02-07T21:00:50.723Z,59.63
2024-02-07T21:04:38.688Z,59.52
2024-02-07T21:08:26.571Z,59.48
2024-02-07T21:12:14.473Z,59.57
2024-02-07T21:16:02.127Z,59.48
2024-02-07T21:19:49.845Z,59.79
2024-02-07T21:23:37.606Z,59.67
2024-02-07T21:27:18.236Z,59.91
2024-02-07T21:30:58.734Z,59.50
2024-02-07T21:34:36.565Z,59.64
2024-02-07T21:38:24.524Z,59.70
2024-02-07T21:42:01.680Z,59.40
2024-02-07T21:45:49.461Z,59.43
2024-02-07T21:49:37.268Z,59.41
2024-02-07T21:53:26.126Z,59.32
2024-02-07T21:57:13.698Z,58.80
2024-02-07T22:01:01.608Z,58.33
2024-02-07T22:04:49.610Z,57.70
2024-02-07T22:08:37.666Z,57.79
2024-02-07T22:12:25.560Z,57.55
2024-02-07T22:16:13.589Z,57.35
2024-02-07T22:20:01.343Z,56.93
2024-02-07T22:23:49.440Z,56.58
2024-02-07T22:27:37.266Z,56.47
2024-02-07T22:31:04.900Z,56.60
2024-02-07T22:34:52.838Z,56.37
2024-02-07T22:38:33.184Z,56.40
2024-02-07T22:42:20.869Z,56.81
2024-02-07T22:46:08.894Z,56.77
2024-02-07T22:49:56.597Z,56.54
2024-02-07T22:53:44.427Z,56.49
2024-02-07T22:57:32.412Z,56.50
2024-02-07T23:01:20.130Z,56.38
2024-02-07T23:04:50.164Z,56.06
2024-02-07T23:08:37.799Z,56.15
2024-02-07T23:12:15.233Z,55.61
2024-02-07T23:15:50.352Z,55.06
2024-02-07T23:19:38.097Z,54.93
2024-02-07T23:23:25.777Z,54.78
2024-02-07T23:27:13.413Z,54.51
2024-02-07T23:31:01.030Z,54.33
2024-02-07T23:34:48.694Z,54.29
2024-02-07T23:38:36.360Z,54.45
2024-02-07T23:42:24.066Z,54.42
2024-02-07T23:46:11.787Z,54.78
2024-02-07T23:49:48.071Z,54.66
2024-02-07T23:53:35.723Z,54.82
2024-02-07T23:57:16.053Z,54.96
